Home   Weather   Spain   Málaga   Past weeks
Flag for Spain

Past Weather in Málaga, Málaga, Spain — Yesterday and Last 2 Weeks

Currently: 82 °F. Passing clouds. (Weather station: Malaga / Aeropuerto, Spain). See more current weather

Past Weather in Málaga — Graph

°F

Málaga Temperature Yesterday

Maximum temperature yesterday: 86 °F (at 1:00 pm)
Minimum temperature yesterday: 70 °F (at 7:00 am)
Average temperature yesterday: 79 °F

High & Low Weather Summary for the Past Weeks

 TemperatureHumidityPressure
High102 °F (Jul 26, 12:00 pm)100% (Jul 27, 3:00 am)30.07 "Hg (Jul 27, 3:00 am)
Low68 °F (Jul 28, 6:30 am)12% (Jul 26, 12:00 pm)29.83 "Hg (Jul 27, 7:00 pm)
Average80 °F67%29.95 "Hg
* Reported Jul 24 11:00 am — Aug 8 11:00 am, Málaga. Weather by CustomWeather, © 2022

Note: Actual official high and low records may vary slightly from our data, if they occured in-between our weather recording intervals... More about our weather records

Málaga Weather History for the Previous 24 Hours

Scroll right to see more
 ConditionsComfort  
Time TempWeatherWind HumidityBarometerVisibility
11:00 am
Mon, Aug 8
82 °FSunny.2 mph48%29.98 "Hg10 mi
10:30 am81 °FPassing clouds.3 mph51%29.98 "HgN/A
10:00 am79 °FPassing clouds.6 mph51%29.98 "HgN/A
9:00 am72 °FPassing clouds.6 mph65%29.98 "HgN/A
8:00 am68 °FSunny.5 mph73%29.98 "Hg10 mi
7:00 am68 °FClear.7 mph78%29.95 "Hg10 mi
6:30 am70 °FClear.7 mph73%29.95 "Hg10 mi
6:00 am72 °FClear.6 mph69%29.95 "Hg10 mi
5:30 am70 °FClear.7 mph73%29.95 "Hg10 mi
5:00 am72 °FClear.2 mph73%29.95 "Hg10 mi
4:30 am70 °FClear.7 mph78%29.95 "Hg10 mi
3:30 am72 °FClear.6 mph69%29.95 "Hg10 mi
3:00 am73 °FClear.7 mph69%29.95 "Hg10 mi
1:30 am77 °FPassing clouds.3 mph79%29.95 "HgN/A
1:00 am75 °FClear.No wind74%29.95 "Hg10 mi
12:30 am77 °FClear.1 mph74%29.95 "Hg10 mi
12:00 am77 °FClear.1 mph74%29.95 "Hg10 mi
11:30 pm
Sun, Aug 7
77 °FClear.1 mph79%29.95 "Hg10 mi
11:00 pm77 °FClear.No wind74%29.95 "Hg10 mi
10:00 pm79 °FClear.3 mph70%29.92 "Hg10 mi
9:30 pm79 °FClear.6 mph74%29.92 "Hg10 mi
9:00 pm81 °FPassing clouds.5 mph66%29.92 "HgN/A
8:30 pm82 °FPassing clouds.7 mph66%29.92 "HgN/A
8:00 pm82 °FPassing clouds.9 mph66%29.92 "HgN/A
7:00 pm86 °FPassing clouds.8 mph55%29.92 "HgN/A
6:30 pm86 °FPassing clouds.9 mph59%29.92 "HgN/A
6:00 pm86 °FPassing clouds.10 mph59%29.92 "HgN/A
5:00 pm86 °FPassing clouds.10 mph59%29.95 "HgN/A
4:00 pm86 °FPassing clouds.12 mph55%29.95 "HgN/A
3:30 pm86 °FPassing clouds.12 mph52%29.95 "HgN/A
3:00 pm86 °FPassing clouds.12 mph52%29.98 "HgN/A
2:30 pm86 °FPassing clouds.12 mph55%29.98 "HgN/A
2:00 pm86 °FPassing clouds.10 mph55%29.98 "HgN/A
1:00 pm86 °FPassing clouds.8 mph52%29.98 "HgN/A
Weather by CustomWeather, © 2022

See weather overview